sensor_id;sensor_type;location;lat;lon;timestamp;P1;durP1;ratioP1;P2;durP2;ratioP2
12474;SDS011;6302;42.624;23.334;2022-10-16T00:00:38;7.27;;;6.17;;
12474;SDS011;6302;42.624;23.334;2022-10-16T00:03:07;6.97;;;5.97;;
12474;SDS011;6302;42.624;23.334;2022-10-16T00:05:37;7.03;;;6.00;;
12474;SDS011;6302;42.624;23.334;2022-10-16T00:08:05;8.43;;;6.27;;
12474;SDS011;6302;42.624;23.334;2022-10-16T00:10:34;7.80;;;7.00;;
12474;SDS011;6302;42.624;23.334;2022-10-16T00:13:01;8.73;;;6.57;;
12474;SDS011;6302;42.624;23.334;2022-10-16T00:15:28;9.10;;;6.90;;
12474;SDS011;6302;42.624;23.334;2022-10-16T00:17:55;8.50;;;7.57;;
12474;SDS011;6302;42.624;23.334;2022-10-16T00:20:22;9.53;;;7.20;;
12474;SDS011;6302;42.624;23.334;2022-10-16T00:22:49;7.33;;;6.07;;
12474;SDS011;6302;42.624;23.334;2022-10-16T00:25:15;7.10;;;6.40;;
12474;SDS011;6302;42.624;23.334;2022-10-16T00:27:44;7.93;;;6.50;;
12474;SDS011;6302;42.624;23.334;2022-10-16T00:30:10;8.03;;;6.53;;
12474;SDS011;6302;42.624;23.334;2022-10-16T00:32:37;6.53;;;5.77;;
12474;SDS011;6302;42.624;23.334;2022-10-16T00:35:04;6.73;;;5.97;;
12474;SDS011;6302;42.624;23.334;2022-10-16T00:37:31;6.23;;;5.30;;
12474;SDS011;6302;42.624;23.334;2022-10-16T00:39:58;6.13;;;5.53;;
12474;SDS011;6302;42.624;23.334;2022-10-16T00:42:25;5.43;;;4.93;;
12474;SDS011;6302;42.624;23.334;2022-10-16T00:44:54;6.23;;;5.57;;
12474;SDS011;6302;42.624;23.334;2022-10-16T00:47:23;6.03;;;5.23;;
12474;SDS011;6302;42.624;23.334;2022-10-16T00:50:02;6.03;;;5.43;;
12474;SDS011;6302;42.624;23.334;2022-10-16T00:52:33;5.47;;;4.97;;
12474;SDS011;6302;42.624;23.334;2022-10-16T00:55:00;5.70;;;5.17;;
12474;SDS011;6302;42.624;23.334;2022-10-16T00:57:29;5.70;;;5.10;;
12474;SDS011;6302;42.624;23.334;2022-10-16T00:59:57;5.00;;;4.50;;
12474;SDS011;6302;42.624;23.334;2022-10-16T01:02:24;4.13;;;3.83;;
12474;SDS011;6302;42.624;23.334;2022-10-16T01:04:52;5.67;;;5.17;;
12474;SDS011;6302;42.624;23.334;2022-10-16T01:07:24;5.63;;;5.13;;
12474;SDS011;6302;42.624;23.334;2022-10-16T01:10:03;8.57;;;5.50;;
12474;SDS011;6302;42.624;23.334;2022-10-16T01:12:38;6.33;;;5.57;;
12474;SDS011;6302;42.624;23.334;2022-10-16T01:15:12;6.57;;;5.43;;
12474;SDS011;6302;42.624;23.334;2022-10-16T01:17:47;7.80;;;5.30;;
12474;SDS011;6302;42.624;23.334;2022-10-16T01:20:20;5.70;;;5.20;;
12474;SDS011;6302;42.624;23.334;2022-10-16T01:22:57;5.60;;;5.10;;
12474;SDS011;6302;42.624;23.334;2022-10-16T01:25:35;6.10;;;5.50;;
12474;SDS011;6302;42.624;23.334;2022-10-16T01:28:16;6.10;;;5.20;;
12474;SDS011;6302;42.624;23.334;2022-10-16T01:30:48;5.17;;;4.70;;
12474;SDS011;6302;42.624;23.334;2022-10-16T01:33:22;6.73;;;4.43;;
12474;SDS011;6302;42.624;23.334;2022-10-16T01:35:56;6.73;;;5.20;;
12474;SDS011;6302;42.624;23.334;2022-10-16T01:38:28;5.50;;;4.53;;
12474;SDS011;6302;42.624;23.334;2022-10-16T01:41:00;7.10;;;5.13;;
12474;SDS011;6302;42.624;23.334;2022-10-16T01:43:33;6.67;;;5.20;;
12474;SDS011;6302;42.624;23.334;2022-10-16T01:46:03;6.07;;;5.27;;
12474;SDS011;6302;42.624;23.334;2022-10-16T01:48:31;5.97;;;5.10;;
12474;SDS011;6302;42.624;23.334;2022-10-16T01:51:02;5.57;;;5.07;;
12474;SDS011;6302;42.624;23.334;2022-10-16T01:53:32;5.83;;;4.83;;
12474;SDS011;6302;42.624;23.334;2022-10-16T01:55:59;5.50;;;5.00;;
12474;SDS011;6302;42.624;23.334;2022-10-16T01:58:29;4.97;;;4.47;;
12474;SDS011;6302;42.624;23.334;2022-10-16T02:00:59;5.30;;;4.80;;
12474;SDS011;6302;42.624;23.334;2022-10-16T02:03:28;5.17;;;4.53;;
12474;SDS011;6302;42.624;23.334;2022-10-16T02:05:56;5.73;;;4.73;;
12474;SDS011;6302;42.624;23.334;2022-10-16T02:08:25;4.87;;;4.40;;
12474;SDS011;6302;42.624;23.334;2022-10-16T02:10:54;7.37;;;4.53;;
12474;SDS011;6302;42.624;23.334;2022-10-16T02:13:24;6.50;;;5.13;;
12474;SDS011;6302;42.624;23.334;2022-10-16T02:15:57;5.63;;;5.03;;
12474;SDS011;6302;42.624;23.334;2022-10-16T02:18:25;6.37;;;5.77;;
12474;SDS011;6302;42.624;23.334;2022-10-16T02:20:55;6.57;;;5.90;;
12474;SDS011;6302;42.624;23.334;2022-10-16T02:23:27;5.80;;;5.23;;
12474;SDS011;6302;42.624;23.334;2022-10-16T02:26:00;6.97;;;5.33;;
12474;SDS011;6302;42.624;23.334;2022-10-16T02:28:34;6.60;;;5.20;;
12474;SDS011;6302;42.624;23.334;2022-10-16T02:31:08;7.27;;;5.53;;
12474;SDS011;6302;42.624;23.334;2022-10-16T02:33:37;7.70;;;6.13;;
12474;SDS011;6302;42.624;23.334;2022-10-16T02:36:07;8.63;;;6.77;;
12474;SDS011;6302;42.624;23.334;2022-10-16T02:38:34;10.77;;;7.23;;
12474;SDS011;6302;42.624;23.334;2022-10-16T02:41:03;9.13;;;7.17;;
12474;SDS011;6302;42.624;23.334;2022-10-16T02:43:30;10.17;;;6.60;;
12474;SDS011;6302;42.624;23.334;2022-10-16T02:45:58;8.80;;;7.07;;
12474;SDS011;6302;42.624;23.334;2022-10-16T02:48:26;9.73;;;7.73;;
12474;SDS011;6302;42.624;23.334;2022-10-16T02:50:53;9.13;;;7.93;;
12474;SDS011;6302;42.624;23.334;2022-10-16T02:53:20;11.60;;;8.60;;
12474;SDS011;6302;42.624;23.334;2022-10-16T02:55:46;9.63;;;8.63;;
12474;SDS011;6302;42.624;23.334;2022-10-16T02:58:13;8.73;;;7.67;;
12474;SDS011;6302;42.624;23.334;2022-10-16T03:00:40;10.43;;;8.77;;
12474;SDS011;6302;42.624;23.334;2022-10-16T03:03:07;10.80;;;8.60;;
12474;SDS011;6302;42.624;23.334;2022-10-16T03:05:35;11.87;;;7.90;;
12474;SDS011;6302;42.624;23.334;2022-10-16T03:08:02;11.67;;;8.80;;
12474;SDS011;6302;42.624;23.334;2022-10-16T03:10:29;10.27;;;8.47;;
12474;SDS011;6302;42.624;23.334;2022-10-16T03:12:56;10.50;;;9.07;;
12474;SDS011;6302;42.624;23.334;2022-10-16T03:15:22;10.60;;;8.13;;
12474;SDS011;6302;42.624;23.334;2022-10-16T03:17:49;12.70;;;9.00;;
12474;SDS011;6302;42.624;23.334;2022-10-16T03:20:16;10.33;;;8.90;;
12474;SDS011;6302;42.624;23.334;2022-10-16T03:22:44;10.60;;;9.00;;
12474;SDS011;6302;42.624;23.334;2022-10-16T03:25:11;10.37;;;9.27;;
12474;SDS011;6302;42.624;23.334;2022-10-16T03:27:37;11.27;;;9.33;;
12474;SDS011;6302;42.624;23.334;2022-10-16T03:30:05;12.73;;;10.13;;
12474;SDS011;6302;42.624;23.334;2022-10-16T03:32:32;13.53;;;11.07;;
12474;SDS011;6302;42.624;23.334;2022-10-16T03:34:59;13.83;;;11.23;;
12474;SDS011;6302;42.624;23.334;2022-10-16T03:37:26;12.33;;;10.80;;
12474;SDS011;6302;42.624;23.334;2022-10-16T03:39:54;16.50;;;11.60;;
12474;SDS011;6302;42.624;23.334;2022-10-16T03:42:21;12.50;;;9.87;;
12474;SDS011;6302;42.624;23.334;2022-10-16T03:44:47;12.33;;;9.97;;
12474;SDS011;6302;42.624;23.334;2022-10-16T03:47:14;13.30;;;10.43;;
12474;SDS011;6302;42.624;23.334;2022-10-16T03:49:45;16.43;;;11.33;;
12474;SDS011;6302;42.624;23.334;2022-10-16T03:52:12;14.73;;;11.83;;
12474;SDS011;6302;42.624;23.334;2022-10-16T03:54:39;14.73;;;11.53;;
12474;SDS011;6302;42.624;23.334;2022-10-16T03:57:07;12.67;;;10.40;;
12474;SDS011;6302;42.624;23.334;2022-10-16T03:59:34;14.13;;;9.47;;
12474;SDS011;6302;42.624;23.334;2022-10-16T04:02:00;13.00;;;10.17;;
12474;SDS011;6302;42.624;23.334;2022-10-16T04:04:27;12.67;;;10.00;;
12474;SDS011;6302;42.624;23.334;2022-10-16T04:06:54;12.73;;;10.07;;
12474;SDS011;6302;42.624;23.334;2022-10-16T04:09:21;12.53;;;10.73;;
12474;SDS011;6302;42.624;23.334;2022-10-16T04:11:48;12.17;;;9.90;;
12474;SDS011;6302;42.624;23.334;2022-10-16T04:14:16;13.83;;;10.17;;
12474;SDS011;6302;42.624;23.334;2022-10-16T04:16:42;14.53;;;11.27;;
12474;SDS011;6302;42.624;23.334;2022-10-16T04:19:09;16.97;;;11.13;;
12474;SDS011;6302;42.624;23.334;2022-10-16T04:21:37;16.80;;;11.07;;
12474;SDS011;6302;42.624;23.334;2022-10-16T04:24:04;13.60;;;11.83;;
12474;SDS011;6302;42.624;23.334;2022-10-16T04:26:31;16.23;;;11.57;;
12474;SDS011;6302;42.624;23.334;2022-10-16T04:28:58;14.10;;;11.47;;
12474;SDS011;6302;42.624;23.334;2022-10-16T04:31:26;13.93;;;10.60;;
12474;SDS011;6302;42.624;23.334;2022-10-16T04:33:53;14.27;;;11.07;;
12474;SDS011;6302;42.624;23.334;2022-10-16T04:36:20;12.83;;;9.80;;
12474;SDS011;6302;42.624;23.334;2022-10-16T04:38:47;11.70;;;9.57;;
12474;SDS011;6302;42.624;23.334;2022-10-16T04:41:13;13.53;;;9.13;;
12474;SDS011;6302;42.624;23.334;2022-10-16T04:43:40;11.83;;;9.80;;
12474;SDS011;6302;42.624;23.334;2022-10-16T04:46:07;9.70;;;8.60;;
12474;SDS011;6302;42.624;23.334;2022-10-16T04:48:36;13.43;;;9.07;;
12474;SDS011;6302;42.624;23.334;2022-10-16T04:51:03;10.23;;;8.70;;
12474;SDS011;6302;42.624;23.334;2022-10-16T04:53:30;13.77;;;9.30;;
12474;SDS011;6302;42.624;23.334;2022-10-16T04:55:57;10.00;;;9.00;;
12474;SDS011;6302;42.624;23.334;2022-10-16T04:58:24;11.50;;;10.10;;
12474;SDS011;6302;42.624;23.334;2022-10-16T05:00:50;10.50;;;9.43;;
12474;SDS011;6302;42.624;23.334;2022-10-16T05:03:17;10.63;;;9.30;;
12474;SDS011;6302;42.624;23.334;2022-10-16T05:05:45;15.27;;;10.33;;
12474;SDS011;6302;42.624;23.334;2022-10-16T05:08:13;12.07;;;9.80;;
12474;SDS011;6302;42.624;23.334;2022-10-16T05:10:40;11.70;;;9.27;;
12474;SDS011;6302;42.624;23.334;2022-10-16T05:13:08;10.90;;;8.90;;
12474;SDS011;6302;42.624;23.334;2022-10-16T05:15:35;12.77;;;9.83;;
12474;SDS011;6302;42.624;23.334;2022-10-16T05:18:02;11.73;;;10.40;;
12474;SDS011;6302;42.624;23.334;2022-10-16T05:20:29;13.73;;;9.70;;
12474;SDS011;6302;42.624;23.334;2022-10-16T05:22:57;11.33;;;9.53;;
12474;SDS011;6302;42.624;23.334;2022-10-16T05:25:24;11.30;;;9.57;;
12474;SDS011;6302;42.624;23.334;2022-10-16T05:27:51;11.93;;;9.67;;
12474;SDS011;6302;42.624;23.334;2022-10-16T05:30:18;11.07;;;9.53;;
12474;SDS011;6302;42.624;23.334;2022-10-16T05:32:46;12.70;;;9.77;;
12474;SDS011;6302;42.624;23.334;2022-10-16T05:35:13;12.77;;;10.70;;
12474;SDS011;6302;42.624;23.334;2022-10-16T05:37:40;13.10;;;11.17;;
12474;SDS011;6302;42.624;23.334;2022-10-16T05:40:09;11.37;;;9.70;;
12474;SDS011;6302;42.624;23.334;2022-10-16T05:42:36;13.93;;;11.10;;
12474;SDS011;6302;42.624;23.334;2022-10-16T05:45:04;13.90;;;11.13;;
12474;SDS011;6302;42.624;23.334;2022-10-16T05:47:31;16.13;;;11.83;;
12474;SDS011;6302;42.624;23.334;2022-10-16T05:49:58;13.23;;;11.73;;
12474;SDS011;6302;42.624;23.334;2022-10-16T05:52:26;16.37;;;11.77;;
12474;SDS011;6302;42.624;23.334;2022-10-16T05:54:53;16.50;;;12.30;;
12474;SDS011;6302;42.624;23.334;2022-10-16T05:57:21;16.87;;;14.57;;
12474;SDS011;6302;42.624;23.334;2022-10-16T05:59:48;15.23;;;13.10;;
12474;SDS011;6302;42.624;23.334;2022-10-16T06:02:15;15.57;;;12.90;;
12474;SDS011;6302;42.624;23.334;2022-10-16T06:04:41;13.73;;;12.23;;
12474;SDS011;6302;42.624;23.334;2022-10-16T06:07:08;13.70;;;11.43;;
12474;SDS011;6302;42.624;23.334;2022-10-16T06:09:35;16.53;;;12.07;;
12474;SDS011;6302;42.624;23.334;2022-10-16T06:12:02;12.37;;;11.07;;
12474;SDS011;6302;42.624;23.334;2022-10-16T06:14:30;13.83;;;12.23;;
12474;SDS011;6302;42.624;23.334;2022-10-16T06:16:57;14.83;;;12.07;;
12474;SDS011;6302;42.624;23.334;2022-10-16T06:19:23;15.03;;;11.70;;
12474;SDS011;6302;42.624;23.334;2022-10-16T06:21:50;16.43;;;12.57;;
12474;SDS011;6302;42.624;23.334;2022-10-16T06:24:17;14.50;;;12.00;;
12474;SDS011;6302;42.624;23.334;2022-10-16T06:26:44;12.47;;;11.13;;
12474;SDS011;6302;42.624;23.334;2022-10-16T06:29:10;16.83;;;12.43;;
12474;SDS011;6302;42.624;23.334;2022-10-16T06:31:39;16.60;;;12.47;;
12474;SDS011;6302;42.624;23.334;2022-10-16T06:34:05;20.77;;;11.77;;
12474;SDS011;6302;42.624;23.334;2022-10-16T06:36:34;14.67;;;10.97;;
12474;SDS011;6302;42.624;23.334;2022-10-16T06:39:01;11.40;;;9.77;;
12474;SDS011;6302;42.624;23.334;2022-10-16T06:41:28;13.23;;;11.40;;
12474;SDS011;6302;42.624;23.334;2022-10-16T06:43:54;14.23;;;11.60;;
12474;SDS011;6302;42.624;23.334;2022-10-16T06:46:22;15.93;;;11.73;;
12474;SDS011;6302;42.624;23.334;2022-10-16T06:48:52;15.90;;;12.60;;
12474;SDS011;6302;42.624;23.334;2022-10-16T06:51:19;13.17;;;10.27;;
12474;SDS011;6302;42.624;23.334;2022-10-16T06:53:48;15.10;;;11.13;;
12474;SDS011;6302;42.624;23.334;2022-10-16T06:56:16;12.63;;;11.33;;
12474;SDS011;6302;42.624;23.334;2022-10-16T06:58:45;11.50;;;9.53;;
12474;SDS011;6302;42.624;23.334;2022-10-16T07:01:12;11.33;;;8.93;;
12474;SDS011;6302;42.624;23.334;2022-10-16T07:03:40;9.73;;;8.83;;
12474;SDS011;6302;42.624;23.334;2022-10-16T07:06:10;9.80;;;8.07;;
12474;SDS011;6302;42.624;23.334;2022-10-16T07:08:39;8.23;;;7.43;;
12474;SDS011;6302;42.624;23.334;2022-10-16T07:11:07;9.17;;;8.13;;
12474;SDS011;6302;42.624;23.334;2022-10-16T07:13:35;8.10;;;7.30;;
12474;SDS011;6302;42.624;23.334;2022-10-16T07:16:06;9.50;;;7.73;;
12474;SDS011;6302;42.624;23.334;2022-10-16T07:18:33;11.47;;;7.13;;
12474;SDS011;6302;42.624;23.334;2022-10-16T07:21:03;8.63;;;7.03;;
12474;SDS011;6302;42.624;23.334;2022-10-16T07:23:32;7.43;;;6.53;;
12474;SDS011;6302;42.624;23.334;2022-10-16T07:25:59;7.50;;;6.00;;
12474;SDS011;6302;42.624;23.334;2022-10-16T07:28:26;7.00;;;6.30;;
12474;SDS011;6302;42.624;23.334;2022-10-16T07:30:54;6.70;;;6.10;;
12474;SDS011;6302;42.624;23.334;2022-10-16T07:33:20;7.73;;;6.10;;
12474;SDS011;6302;42.624;23.334;2022-10-16T07:35:48;8.03;;;5.90;;
12474;SDS011;6302;42.624;23.334;2022-10-16T07:38:16;9.93;;;6.40;;
12474;SDS011;6302;42.624;23.334;2022-10-16T07:40:44;7.40;;;6.70;;
12474;SDS011;6302;42.624;23.334;2022-10-16T07:43:11;7.13;;;6.37;;
12474;SDS011;6302;42.624;23.334;2022-10-16T07:45:47;7.83;;;6.47;;
12474;SDS011;6302;42.624;23.334;2022-10-16T07:48:14;6.77;;;6.07;;
12474;SDS011;6302;42.624;23.334;2022-10-16T07:50:41;8.03;;;6.90;;
12474;SDS011;6302;42.624;23.334;2022-10-16T07:53:09;9.50;;;6.80;;
12474;SDS011;6302;42.624;23.334;2022-10-16T07:55:36;8.70;;;6.57;;
12474;SDS011;6302;42.624;23.334;2022-10-16T07:58:05;7.20;;;6.50;;
12474;SDS011;6302;42.624;23.334;2022-10-16T08:00:32;8.40;;;7.57;;
12474;SDS011;6302;42.624;23.334;2022-10-16T08:03:00;13.27;;;7.67;;
12474;SDS011;6302;42.624;23.334;2022-10-16T08:05:27;7.53;;;6.83;;
12474;SDS011;6302;42.624;23.334;2022-10-16T08:07:54;7.83;;;7.03;;
12474;SDS011;6302;42.624;23.334;2022-10-16T08:10:22;7.70;;;6.37;;
12474;SDS011;6302;42.624;23.334;2022-10-16T08:12:50;7.37;;;6.47;;
12474;SDS011;6302;42.624;23.334;2022-10-16T08:15:19;10.10;;;7.23;;
12474;SDS011;6302;42.624;23.334;2022-10-16T08:17:53;7.30;;;6.57;;
12474;SDS011;6302;42.624;23.334;2022-10-16T08:20:20;14.10;;;7.20;;
12474;SDS011;6302;42.624;23.334;2022-10-16T08:22:47;7.50;;;6.43;;
12474;SDS011;6302;42.624;23.334;2022-10-16T08:25:14;8.40;;;6.43;;
12474;SDS011;6302;42.624;23.334;2022-10-16T08:27:43;8.60;;;6.60;;
12474;SDS011;6302;42.624;23.334;2022-10-16T08:30:13;7.57;;;6.70;;
12474;SDS011;6302;42.624;23.334;2022-10-16T08:32:41;8.27;;;7.33;;
12474;SDS011;6302;42.624;23.334;2022-10-16T08:35:08;9.30;;;6.60;;
12474;SDS011;6302;42.624;23.334;2022-10-16T08:37:35;9.97;;;7.07;;
12474;SDS011;6302;42.624;23.334;2022-10-16T08:40:05;7.03;;;6.33;;
12474;SDS011;6302;42.624;23.334;2022-10-16T08:43:01;8.97;;;5.77;;
12474;SDS011;6302;42.624;23.334;2022-10-16T08:45:54;6.53;;;5.93;;
12474;SDS011;6302;42.624;23.334;2022-10-16T08:48:35;8.37;;;4.70;;
12474;SDS011;6302;42.624;23.334;2022-10-16T08:51:09;5.63;;;4.43;;
12474;SDS011;6302;42.624;23.334;2022-10-16T08:53:42;4.07;;;3.57;;
12474;SDS011;6302;42.624;23.334;2022-10-16T08:56:12;6.07;;;4.10;;
12474;SDS011;6302;42.624;23.334;2022-10-16T08:58:39;5.37;;;3.97;;
12474;SDS011;6302;42.624;23.334;2022-10-16T09:01:15;6.57;;;4.27;;
12474;SDS011;6302;42.624;23.334;2022-10-16T09:03:59;4.93;;;4.43;;
12474;SDS011;6302;42.624;23.334;2022-10-16T09:06:46;4.50;;;3.73;;
12474;SDS011;6302;42.624;23.334;2022-10-16T09:09:18;5.00;;;4.20;;
12474;SDS011;6302;42.624;23.334;2022-10-16T09:12:08;5.57;;;4.50;;
12474;SDS011;6302;42.624;23.334;2022-10-16T09:14:45;4.97;;;4.20;;
12474;SDS011;6302;42.624;23.334;2022-10-16T09:17:33;4.87;;;4.43;;
12474;SDS011;6302;42.624;23.334;2022-10-16T09:20:16;4.80;;;4.37;;
12474;SDS011;6302;42.624;23.334;2022-10-16T09:22:50;5.13;;;4.40;;
12474;SDS011;6302;42.624;23.334;2022-10-16T09:25:21;3.73;;;3.40;;
12474;SDS011;6302;42.624;23.334;2022-10-16T09:27:48;7.67;;;4.03;;
12474;SDS011;6302;42.624;23.334;2022-10-16T09:30:19;4.30;;;3.83;;
12474;SDS011;6302;42.624;23.334;2022-10-16T09:32:48;3.80;;;3.40;;
12474;SDS011;6302;42.624;23.334;2022-10-16T09:35:19;3.73;;;3.43;;
12474;SDS011;6302;42.624;23.334;2022-10-16T09:37:48;4.37;;;3.97;;
12474;SDS011;6302;42.624;23.334;2022-10-16T09:40:24;5.97;;;3.80;;
12474;SDS011;6302;42.624;23.334;2022-10-16T09:42:53;4.00;;;3.70;;
12474;SDS011;6302;42.624;23.334;2022-10-16T09:45:27;4.13;;;3.73;;
12474;SDS011;6302;42.624;23.334;2022-10-16T09:47:54;3.83;;;3.37;;
12474;SDS011;6302;42.624;23.334;2022-10-16T09:50:23;4.67;;;3.63;;
12474;SDS011;6302;42.624;23.334;2022-10-16T09:53:02;4.97;;;3.70;;
12474;SDS011;6302;42.624;23.334;2022-10-16T09:55:30;5.20;;;4.23;;
12474;SDS011;6302;42.624;23.334;2022-10-16T09:57:57;4.10;;;3.70;;
12474;SDS011;6302;42.624;23.334;2022-10-16T10:00:24;5.20;;;3.90;;
12474;SDS011;6302;42.624;23.334;2022-10-16T10:02:51;4.10;;;3.70;;
12474;SDS011;6302;42.624;23.334;2022-10-16T10:05:19;3.90;;;3.53;;
12474;SDS011;6302;42.624;23.334;2022-10-16T10:07:53;4.10;;;3.70;;
12474;SDS011;6302;42.624;23.334;2022-10-16T10:10:23;4.27;;;3.87;;
12474;SDS011;6302;42.624;23.334;2022-10-16T10:12:51;5.30;;;3.60;;
12474;SDS011;6302;42.624;23.334;2022-10-16T10:15:19;3.87;;;3.47;;
12474;SDS011;6302;42.624;23.334;2022-10-16T10:17:47;3.60;;;3.30;;
12474;SDS011;6302;42.624;23.334;2022-10-16T10:20:21;3.37;;;3.07;;
12474;SDS011;6302;42.624;23.334;2022-10-16T10:22:52;4.37;;;3.33;;
12474;SDS011;6302;42.624;23.334;2022-10-16T10:28:16;4.40;;;3.47;;
12474;SDS011;6302;42.624;23.334;2022-10-16T10:30:54;4.20;;;3.67;;
12474;SDS011;6302;42.624;23.334;2022-10-16T10:33:27;4.60;;;3.70;;
12474;SDS011;6302;42.624;23.334;2022-10-16T10:36:01;3.53;;;3.23;;
12474;SDS011;6302;42.624;23.334;2022-10-16T10:38:41;4.07;;;3.40;;
12474;SDS011;6302;42.624;23.334;2022-10-16T10:44:07;3.67;;;3.20;;
12474;SDS011;6302;42.624;23.334;2022-10-16T10:46:44;3.67;;;3.00;;
12474;SDS011;6302;42.624;23.334;2022-10-16T10:49:19;4.33;;;3.30;;
12474;SDS011;6302;42.624;23.334;2022-10-16T10:52:02;3.43;;;3.13;;
12474;SDS011;6302;42.624;23.334;2022-10-16T10:54:41;4.27;;;3.50;;
12474;SDS011;6302;42.624;23.334;2022-10-16T10:57:21;6.63;;;3.73;;
12474;SDS011;6302;42.624;23.334;2022-10-16T10:59:57;5.50;;;3.53;;
12474;SDS011;6302;42.624;23.334;2022-10-16T11:02:34;3.63;;;3.33;;
12474;SDS011;6302;42.624;23.334;2022-10-16T11:05:14;4.57;;;3.40;;
12474;SDS011;6302;42.624;23.334;2022-10-16T11:07:50;7.13;;;5.73;;
12474;SDS011;6302;42.624;23.334;2022-10-16T11:10:23;4.87;;;3.70;;
12474;SDS011;6302;42.624;23.334;2022-10-16T11:12:54;4.43;;;3.27;;
12474;SDS011;6302;42.624;23.334;2022-10-16T11:15:25;3.93;;;3.37;;
12474;SDS011;6302;42.624;23.334;2022-10-16T11:17:57;3.90;;;3.03;;
12474;SDS011;6302;42.624;23.334;2022-10-16T11:20:31;3.13;;;2.80;;
12474;SDS011;6302;42.624;23.334;2022-10-16T11:23:01;4.20;;;3.50;;
12474;SDS011;6302;42.624;23.334;2022-10-16T11:25:38;2.80;;;2.60;;
12474;SDS011;6302;42.624;23.334;2022-10-16T11:28:07;2.90;;;2.70;;
12474;SDS011;6302;42.624;23.334;2022-10-16T11:30:40;4.77;;;3.17;;
12474;SDS011;6302;42.624;23.334;2022-10-16T11:33:19;6.70;;;3.23;;
12474;SDS011;6302;42.624;23.334;2022-10-16T11:35:59;3.40;;;3.17;;
12474;SDS011;6302;42.624;23.334;2022-10-16T11:38:31;3.07;;;2.77;;
12474;SDS011;6302;42.624;23.334;2022-10-16T11:41:08;2.60;;;2.40;;
12474;SDS011;6302;42.624;23.334;2022-10-16T11:43:40;3.00;;;2.80;;
12474;SDS011;6302;42.624;23.334;2022-10-16T11:46:12;3.00;;;2.70;;
12474;SDS011;6302;42.624;23.334;2022-10-16T11:48:43;3.40;;;3.10;;
12474;SDS011;6302;42.624;23.334;2022-10-16T11:51:16;3.50;;;3.20;;
12474;SDS011;6302;42.624;23.334;2022-10-16T11:53:52;4.87;;;3.10;;
12474;SDS011;6302;42.624;23.334;2022-10-16T11:56:25;2.80;;;2.60;;
12474;SDS011;6302;42.624;23.334;2022-10-16T11:58:56;3.87;;;2.50;;
12474;SDS011;6302;42.624;23.334;2022-10-16T12:01:28;2.67;;;2.47;;
12474;SDS011;6302;42.624;23.334;2022-10-16T12:04:02;2.67;;;2.47;;
12474;SDS011;6302;42.624;23.334;2022-10-16T12:06:41;3.10;;;2.60;;
12474;SDS011;6302;42.624;23.334;2022-10-16T12:09:13;3.27;;;2.60;;
12474;SDS011;6302;42.624;23.334;2022-10-16T12:11:47;2.13;;;1.87;;
12474;SDS011;6302;42.624;23.334;2022-10-16T12:14:19;2.20;;;2.10;;
12474;SDS011;6302;42.624;23.334;2022-10-16T12:17:01;2.30;;;1.97;;
12474;SDS011;6302;42.624;23.334;2022-10-16T12:19:30;2.43;;;2.07;;
12474;SDS011;6302;42.624;23.334;2022-10-16T12:21:59;3.07;;;2.40;;
12474;SDS011;6302;42.624;23.334;2022-10-16T12:24:32;2.40;;;2.10;;
12474;SDS011;6302;42.624;23.334;2022-10-16T12:27:04;2.50;;;2.30;;
12474;SDS011;6302;42.624;23.334;2022-10-16T12:29:33;2.40;;;2.20;;
12474;SDS011;6302;42.624;23.334;2022-10-16T12:32:02;3.03;;;2.73;;
12474;SDS011;6302;42.624;23.334;2022-10-16T12:34:34;2.70;;;2.50;;
12474;SDS011;6302;42.624;23.334;2022-10-16T12:37:13;3.20;;;2.40;;
12474;SDS011;6302;42.624;23.334;2022-10-16T12:39:45;2.90;;;2.13;;
12474;SDS011;6302;42.624;23.334;2022-10-16T12:42:22;2.67;;;2.37;;
12474;SDS011;6302;42.624;23.334;2022-10-16T12:44:57;2.90;;;2.40;;
12474;SDS011;6302;42.624;23.334;2022-10-16T12:47:34;2.70;;;2.50;;
12474;SDS011;6302;42.624;23.334;2022-10-16T12:50:22;2.40;;;2.20;;
12474;SDS011;6302;42.624;23.334;2022-10-16T12:52:50;2.83;;;2.23;;
12474;SDS011;6302;42.624;23.334;2022-10-16T12:55:18;2.57;;;2.37;;
12474;SDS011;6302;42.624;23.334;2022-10-16T12:58:00;2.90;;;1.97;;
12474;SDS011;6302;42.624;23.334;2022-10-16T13:00:36;2.67;;;2.30;;
12474;SDS011;6302;42.624;23.334;2022-10-16T13:06:17;3.20;;;2.47;;
12474;SDS011;6302;42.624;23.334;2022-10-16T13:09:02;3.03;;;2.27;;
12474;SDS011;6302;42.624;23.334;2022-10-16T13:11:52;2.30;;;2.10;;
12474;SDS011;6302;42.624;23.334;2022-10-16T13:17:45;2.87;;;2.40;;
12474;SDS011;6302;42.624;23.334;2022-10-16T13:20:23;3.37;;;2.73;;
12474;SDS011;6302;42.624;23.334;2022-10-16T13:22:59;2.77;;;2.27;;
12474;SDS011;6302;42.624;23.334;2022-10-16T13:25:36;2.27;;;2.00;;
12474;SDS011;6302;42.624;23.334;2022-10-16T13:28:19;3.97;;;2.57;;
12474;SDS011;6302;42.624;23.334;2022-10-16T13:30:51;2.97;;;2.47;;
12474;SDS011;6302;42.624;23.334;2022-10-16T13:33:21;2.37;;;2.17;;
12474;SDS011;6302;42.624;23.334;2022-10-16T13:35:56;2.73;;;2.53;;
12474;SDS011;6302;42.624;23.334;2022-10-16T13:38:26;2.70;;;2.50;;
12474;SDS011;6302;42.624;23.334;2022-10-16T13:40:54;2.80;;;2.60;;
12474;SDS011;6302;42.624;23.334;2022-10-16T13:43:23;2.70;;;2.50;;
12474;SDS011;6302;42.624;23.334;2022-10-16T13:45:54;3.40;;;3.10;;
12474;SDS011;6302;42.624;23.334;2022-10-16T13:48:24;2.97;;;2.30;;
12474;SDS011;6302;42.624;23.334;2022-10-16T13:51:04;5.03;;;2.70;;
12474;SDS011;6302;42.624;23.334;2022-10-16T13:53:38;4.13;;;2.47;;
12474;SDS011;6302;42.624;23.334;2022-10-16T13:56:06;4.23;;;2.80;;
12474;SDS011;6302;42.624;23.334;2022-10-16T13:58:36;2.73;;;2.53;;
12474;SDS011;6302;42.624;23.334;2022-10-16T14:01:03;3.73;;;3.10;;
12474;SDS011;6302;42.624;23.334;2022-10-16T14:03:33;2.30;;;2.10;;
12474;SDS011;6302;42.624;23.334;2022-10-16T14:06:02;2.67;;;2.47;;
12474;SDS011;6302;42.624;23.334;2022-10-16T14:08:31;3.13;;;2.87;;
12474;SDS011;6302;42.624;23.334;2022-10-16T14:10:58;2.90;;;2.60;;
12474;SDS011;6302;42.624;23.334;2022-10-16T14:13:29;2.67;;;2.30;;
12474;SDS011;6302;42.624;23.334;2022-10-16T14:15:58;4.40;;;2.93;;
12474;SDS011;6302;42.624;23.334;2022-10-16T14:18:29;5.37;;;3.10;;
12474;SDS011;6302;42.624;23.334;2022-10-16T14:21:03;2.90;;;2.60;;
12474;SDS011;6302;42.624;23.334;2022-10-16T14:23:34;2.47;;;2.27;;
12474;SDS011;6302;42.624;23.334;2022-10-16T14:26:11;3.53;;;2.90;;
12474;SDS011;6302;42.624;23.334;2022-10-16T14:28:40;2.90;;;2.67;;
12474;SDS011;6302;42.624;23.334;2022-10-16T14:31:21;4.07;;;3.33;;
12474;SDS011;6302;42.624;23.334;2022-10-16T14:33:51;3.93;;;3.00;;
12474;SDS011;6302;42.624;23.334;2022-10-16T14:36:22;3.33;;;2.43;;
12474;SDS011;6302;42.624;23.334;2022-10-16T14:38:54;2.90;;;2.70;;
12474;SDS011;6302;42.624;23.334;2022-10-16T14:41:26;2.63;;;2.23;;
12474;SDS011;6302;42.624;23.334;2022-10-16T14:43:54;2.30;;;2.10;;
12474;SDS011;6302;42.624;23.334;2022-10-16T14:46:22;5.30;;;2.67;;
12474;SDS011;6302;42.624;23.334;2022-10-16T14:48:59;2.93;;;2.63;;
12474;SDS011;6302;42.624;23.334;2022-10-16T14:51:33;2.87;;;2.50;;
12474;SDS011;6302;42.624;23.334;2022-10-16T14:54:00;2.70;;;2.50;;
12474;SDS011;6302;42.624;23.334;2022-10-16T14:56:28;2.73;;;2.53;;
12474;SDS011;6302;42.624;23.334;2022-10-16T14:58:57;2.90;;;2.63;;
12474;SDS011;6302;42.624;23.334;2022-10-16T15:01:24;5.33;;;2.90;;
12474;SDS011;6302;42.624;23.334;2022-10-16T15:03:51;2.80;;;2.50;;
12474;SDS011;6302;42.624;23.334;2022-10-16T15:06:19;3.03;;;2.80;;
12474;SDS011;6302;42.624;23.334;2022-10-16T15:08:48;4.87;;;3.20;;
12474;SDS011;6302;42.624;23.334;2022-10-16T15:11:15;3.60;;;3.30;;